Time;durP1;ratioP1;P1;durP2;ratioP2;P2;SDS_P1;SDS_P2;PMS_P1;PMS_P2;Temp;Humidity;BMP_temperature;BMP_pressure;BME280_temperature;BME280_humidity;BME280_pressure;Samples;Min_cycle;Max_cycle;Signal;HPM_P1;HPM_P2
2021/05/27 00:00:06;;;;;;;7.72;6.50;;;;;;;;;;5111545;28;20462;-79
2021/05/27 00:02:32;;;;;;;7.97;6.50;;;;;;;;;;5111718;28;20371;-79
2021/05/27 00:04:58;;;;;;;7.88;6.95;;;;;;;;;;5111774;28;20706;-77
2021/05/27 00:07:24;;;;;;;8.02;7.00;;;;;;;;;;5111721;28;20425;-80
2021/05/27 00:09:50;;;;;;;6.97;6.38;;;;;;;;;;5111511;28;20363;-80
2021/05/27 00:12:16;;;;;;;8.23;7.53;;;;;;;;;;5093001;28;20379;-80
2021/05/27 00:14:42;;;;;;;7.67;6.97;;;;;;;;;;5111809;28;20371;-79
2021/05/27 00:17:08;;;;;;;8.10;7.30;;;;;;;;;;5111452;28;21208;-79
2021/05/27 00:19:34;;;;;;;8.63;7.72;;;;;;;;;;5110603;28;20385;-81
2021/05/27 00:22:00;;;;;;;8.55;7.32;;;;;;;;;;5111299;28;20367;-79
2021/05/27 00:24:26;;;;;;;8.50;7.63;;;;;;;;;;5092847;28;20744;-79
2021/05/27 00:26:52;;;;;;;8.20;7.40;;;;;;;;;;5111396;28;20421;-78
2021/05/27 00:29:18;;;;;;;8.60;7.80;;;;;;;;;;5111287;28;20370;-80
2021/05/27 00:31:44;;;;;;;7.38;6.68;;;;;;;;;;5092589;28;20386;-80
2021/05/27 00:34:10;;;;;;;8.52;7.72;;;;;;;;;;5111035;28;20366;-80
2021/05/27 00:36:36;;;;;;;8.55;7.70;;;;;;;;;;5111345;28;20947;-79
2021/05/27 00:39:02;;;;;;;8.82;7.93;;;;;;;;;;5092786;28;20406;-81
2021/05/27 00:41:28;;;;;;;8.73;7.93;;;;;;;;;;5111127;28;20402;-79
2021/05/27 00:43:54;;;;;;;9.73;8.83;;;;;;;;;;5110871;28;20464;-79
2021/05/27 00:46:20;;;;;;;9.10;8.20;;;;;;;;;;5111019;28;20378;-80
2021/05/27 00:49:01;;;;;;;9.50;8.47;;;;;;;;;;5110732;28;20432;-79
2021/05/27 00:51:28;;;;;;;9.38;8.50;;;;;;;;;;5092606;28;20394;-80
2021/05/27 00:53:55;;;;;;;9.15;8.35;;;;;;;;;;5110760;28;20363;-80
2021/05/27 00:56:21;;;;;;;10.73;9.10;;;;;;;;;;5110663;28;20437;-79
2021/05/27 00:58:47;;;;;;;9.83;8.90;;;;;;;;;;5110851;28;20401;-80
2021/05/27 01:01:13;;;;;;;9.77;8.88;;;;;;;;;;5110234;28;20793;-81
2021/05/27 01:03:39;;;;;;;9.50;8.52;;;;;;;;;;5092467;28;20417;-80
2021/05/27 01:06:05;;;;;;;10.15;9.20;;;;;;;;;;5092251;28;20374;-79
2021/05/27 01:08:31;;;;;;;10.23;8.93;;;;;;;;;;5110498;28;21190;-78
2021/05/27 01:10:57;;;;;;;10.50;9.50;;;;;;;;;;5110435;28;20362;-77
2021/05/27 01:13:27;;;;;;;9.65;8.75;;;;;;;;;;5110439;28;20405;-79
2021/05/27 01:15:53;;;;;;;9.20;8.40;;;;;;;;;;5109859;28;20480;-81
2021/05/27 01:18:21;;;;;;;9.38;8.57;;;;;;;;;;5110193;28;21294;-80
2021/05/27 01:20:51;;;;;;;9.73;8.80;;;;;;;;;;5110352;28;20377;-80
2021/05/27 01:23:17;;;;;;;9.77;8.82;;;;;;;;;;5091973;28;20379;-79
2021/05/27 01:25:47;;;;;;;9.47;8.33;;;;;;;;;;5091892;28;20728;-81
2021/05/27 01:28:14;;;;;;;11.80;9.15;;;;;;;;;;5110192;28;20416;-78
2021/05/27 01:30:40;;;;;;;9.68;8.75;;;;;;;;;;5110117;28;20413;-79
2021/05/27 01:33:09;;;;;;;9.75;8.75;;;;;;;;;;5110014;28;20464;-79
2021/05/27 01:35:35;;;;;;;9.35;8.45;;;;;;;;;;5109984;28;20425;-79
2021/05/27 01:38:10;;;;;;;10.18;9.07;;;;;;;;;;5091764;28;20460;-80
2021/05/27 01:40:36;;;;;;;12.38;9.50;;;;;;;;;;5110105;28;20378;-80
2021/05/27 01:43:02;;;;;;;9.68;8.77;;;;;;;;;;5109652;28;20416;-80
2021/05/27 01:45:28;;;;;;;9.80;8.80;;;;;;;;;;5091651;28;20441;-79
2021/05/27 01:47:55;;;;;;;9.57;8.68;;;;;;;;;;5109777;28;20374;-80
2021/05/27 01:50:22;;;;;;;9.88;8.80;;;;;;;;;;5091579;28;20725;-78
2021/05/27 01:52:49;;;;;;;9.77;8.77;;;;;;;;;;5091665;28;20864;-81
2021/05/27 01:55:15;;;;;;;9.57;8.70;;;;;;;;;;5110164;28;20513;-81
2021/05/27 01:57:41;;;;;;;9.68;8.77;;;;;;;;;;5091223;28;20444;-80
2021/05/27 02:00:08;;;;;;;9.90;8.98;;;;;;;;;;5109685;28;20394;-80
2021/05/27 02:02:34;;;;;;;10.10;9.10;;;;;;;;;;5109454;28;20362;-81
2021/05/27 02:05:00;;;;;;;9.43;8.52;;;;;;;;;;5109303;28;20363;-80
2021/05/27 02:07:27;;;;;;;9.30;8.45;;;;;;;;;;5109334;28;20437;-81
2021/05/27 02:09:54;;;;;;;9.20;8.37;;;;;;;;;;5090762;28;20429;-81
2021/05/27 02:12:20;;;;;;;9.85;8.85;;;;;;;;;;5109327;28;20405;-81
2021/05/27 02:14:46;;;;;;;9.70;8.70;;;;;;;;;;5090336;28;20417;-79
2021/05/27 02:17:12;;;;;;;9.88;8.95;;;;;;;;;;5090901;28;20382;-80
2021/05/27 02:19:38;;;;;;;10.82;9.73;;;;;;;;;;5109398;28;20383;-80
2021/05/27 02:22:04;;;;;;;11.07;9.88;;;;;;;;;;5109063;28;20362;-81
2021/05/27 02:24:29;;;;;;;10.05;9.13;;;;;;;;;;5109128;28;20386;-80
2021/05/27 02:26:55;;;;;;;10.82;9.75;;;;;;;;;;5108872;28;20393;-79
2021/05/27 02:29:21;;;;;;;10.02;9.18;;;;;;;;;;5109158;28;20402;-79
2021/05/27 02:31:48;;;;;;;11.23;10.13;;;;;;;;;;5109081;28;20450;-81
2021/05/27 02:34:14;;;;;;;11.38;10.48;;;;;;;;;;5108991;28;20359;-81
2021/05/27 02:36:40;;;;;;;11.52;10.45;;;;;;;;;;5108512;28;20452;-80
2021/05/27 02:39:06;;;;;;;11.63;10.52;;;;;;;;;;5108868;28;20363;-79
2021/05/27 02:41:32;;;;;;;11.35;10.32;;;;;;;;;;5108864;28;20856;-80
2021/05/27 02:43:58;;;;;;;10.77;9.88;;;;;;;;;;5109016;28;20381;-79
2021/05/27 02:46:24;;;;;;;11.73;10.57;;;;;;;;;;5090556;28;20471;-78
2021/05/27 02:48:50;;;;;;;11.97;10.83;;;;;;;;;;5108915;28;20521;-79
2021/05/27 02:51:16;;;;;;;12.07;10.88;;;;;;;;;;5108813;28;20363;-80
2021/05/27 02:53:42;;;;;;;11.73;10.52;;;;;;;;;;5108911;28;20370;-80
2021/05/27 02:56:08;;;;;;;12.00;10.77;;;;;;;;;;5108937;28;20943;-81
2021/05/27 02:58:34;;;;;;;11.77;10.70;;;;;;;;;;5109064;28;20512;-81
2021/05/27 03:01:00;;;;;;;12.25;10.98;;;;;;;;;;5090602;28;20744;-79
2021/05/27 03:03:26;;;;;;;11.40;10.43;;;;;;;;;;5108738;28;20409;-82
2021/05/27 03:05:52;;;;;;;11.98;10.88;;;;;;;;;;5108780;28;20378;-80
2021/05/27 03:08:18;;;;;;;10.93;9.93;;;;;;;;;;5108384;28;20374;-79
2021/05/27 03:10:44;;;;;;;10.73;9.73;;;;;;;;;;5108743;28;20371;-81
2021/05/27 03:13:11;;;;;;;11.53;10.43;;;;;;;;;;5108619;28;20363;-78
2021/05/27 03:15:37;;;;;;;11.45;10.35;;;;;;;;;;5108653;28;20394;-79
2021/05/27 03:18:04;;;;;;;11.50;10.47;;;;;;;;;;5090324;28;20880;-79
2021/05/27 03:20:30;;;;;;;11.07;10.07;;;;;;;;;;5108976;28;20362;-80
2021/05/27 03:22:57;;;;;;;11.00;10.02;;;;;;;;;;5108378;28;20931;-81
2021/05/27 03:25:23;;;;;;;11.40;10.27;;;;;;;;;;5110773;28;20367;-79
2021/05/27 03:27:49;;;;;;;10.90;9.80;;;;;;;;;;5112527;28;20375;-78
2021/05/27 03:30:15;;;;;;;10.75;9.85;;;;;;;;;;5112360;28;20883;-81
2021/05/27 03:32:41;;;;;;;10.80;9.90;;;;;;;;;;5112319;28;20362;-81
2021/05/27 03:35:11;;;;;;;10.67;9.67;;;;;;;;;;5093770;28;20803;-80
2021/05/27 03:37:37;;;;;;;10.57;9.68;;;;;;;;;;5112306;28;20706;-79
2021/05/27 03:40:13;;;;;;;11.07;10.00;;;;;;;;;;5112303;28;20446;-80
2021/05/27 03:42:40;;;;;;;11.05;10.15;;;;;;;;;;5112319;28;20379;-78
2021/05/27 03:45:09;;;;;;;10.37;9.50;;;;;;;;;;5112285;28;20899;-80
2021/05/27 03:47:37;;;;;;;11.98;10.85;;;;;;;;;;5112396;28;20374;-78
2021/05/27 03:50:03;;;;;;;11.02;10.02;;;;;;;;;;5093463;28;20769;-79
2021/05/27 03:52:29;;;;;;;11.05;10.05;;;;;;;;;;5111975;28;20457;-80
2021/05/27 03:54:55;;;;;;;10.73;9.73;;;;;;;;;;5111765;28;20457;-82
2021/05/27 03:57:21;;;;;;;10.45;9.35;;;;;;;;;;5112142;28;20379;-81
2021/05/27 04:02:31;;;;;;;10.00;9.10;;;;;;;;;;5111848;28;20428;-80
2021/05/27 04:07:42;;;;;;;8.95;8.15;;;;;;;;;;5112270;28;20374;-79
2021/05/27 04:10:09;;;;;;;9.05;8.15;;;;;;;;;;5111830;28;20363;-82
2021/05/27 04:12:48;;;;;;;8.93;8.10;;;;;;;;;;5111487;28;20928;-80
2021/05/27 04:15:22;;;;;;;10.57;8.73;;;;;;;;;;5111254;28;20401;-79
2021/05/27 04:17:49;;;;;;;9.68;8.75;;;;;;;;;;5111282;28;20453;-79
2021/05/27 04:20:15;;;;;;;9.45;8.40;;;;;;;;;;5092965;28;20375;-80
2021/05/27 04:22:44;;;;;;;8.57;7.88;;;;;;;;;;5111292;28;20845;-79
2021/05/27 04:25:11;;;;;;;9.60;8.63;;;;;;;;;;5111132;28;20468;-79
2021/05/27 04:27:37;;;;;;;8.23;7.43;;;;;;;;;;5111410;28;20386;-79
2021/05/27 04:30:17;;;;;;;8.30;7.60;;;;;;;;;;5111227;28;20825;-80
2021/05/27 04:32:55;;;;;;;7.90;7.20;;;;;;;;;;5111210;28;21576;-81
2021/05/27 04:35:21;;;;;;;8.13;6.85;;;;;;;;;;5093099;28;20447;-79
2021/05/27 04:37:48;;;;;;;7.97;7.22;;;;;;;;;;5110806;28;20374;-79
2021/05/27 04:40:14;;;;;;;8.23;7.43;;;;;;;;;;5111179;28;20402;-80
2021/05/27 04:42:41;;;;;;;7.95;7.22;;;;;;;;;;5111231;28;20355;-80
2021/05/27 04:45:07;;;;;;;7.82;7.13;;;;;;;;;;5111109;28;20363;-81
2021/05/27 04:47:33;;;;;;;9.73;7.45;;;;;;;;;;5093067;28;20860;-80
2021/05/27 04:49:59;;;;;;;10.23;7.95;;;;;;;;;;5111071;28;20363;-79
2021/05/27 04:52:25;;;;;;;9.15;8.25;;;;;;;;;;5110973;28;20422;-81
2021/05/27 04:54:52;;;;;;;8.57;7.78;;;;;;;;;;5092298;28;20702;-80
2021/05/27 04:57:18;;;;;;;8.45;7.68;;;;;;;;;;5092602;28;20436;-80
2021/05/27 04:59:44;;;;;;;8.15;7.35;;;;;;;;;;5110771;28;20371;-80
2021/05/27 05:02:09;;;;;;;8.18;7.47;;;;;;;;;;5110719;28;20383;-80
2021/05/27 05:04:35;;;;;;;7.75;7.05;;;;;;;;;;5110732;28;20363;-81
2021/05/27 05:07:01;;;;;;;7.55;6.85;;;;;;;;;;5092240;28;20397;-79
2021/05/27 05:09:28;;;;;;;6.80;6.22;;;;;;;;;;5111063;28;20367;-80
2021/05/27 05:11:54;;;;;;;7.00;6.30;;;;;;;;;;5110798;28;20446;-80
2021/05/27 05:14:20;;;;;;;7.27;6.57;;;;;;;;;;5110782;28;20370;-80
2021/05/27 05:16:46;;;;;;;7.00;6.30;;;;;;;;;;5110700;28;20480;-81
2021/05/27 05:19:12;;;;;;;6.50;5.72;;;;;;;;;;5091954;28;20391;-81
2021/05/27 05:21:38;;;;;;;5.93;5.43;;;;;;;;;;5110378;28;20906;-81
2021/05/27 05:24:04;;;;;;;6.43;5.82;;;;;;;;;;5110517;28;20359;-80
2021/05/27 05:26:30;;;;;;;5.55;5.05;;;;;;;;;;5110393;28;20856;-81
2021/05/27 05:28:56;;;;;;;5.15;4.72;;;;;;;;;;5110242;28;20392;-79
2021/05/27 05:31:22;;;;;;;6.45;5.10;;;;;;;;;;5110115;28;20359;-80
2021/05/27 05:33:48;;;;;;;4.47;4.07;;;;;;;;;;5110739;28;20373;-79
2021/05/27 05:36:15;;;;;;;4.97;4.30;;;;;;;;;;5091896;28;20390;-79
2021/05/27 05:38:41;;;;;;;4.90;4.40;;;;;;;;;;5110048;28;20413;-80
2021/05/27 05:41:07;;;;;;;4.40;4.00;;;;;;;;;;5109951;28;20401;-80
2021/05/27 05:43:33;;;;;;;5.17;4.30;;;;;;;;;;5110373;28;20397;-80
2021/05/27 05:45:59;;;;;;;3.90;3.50;;;;;;;;;;5109890;28;20379;-80
2021/05/27 05:48:25;;;;;;;4.57;3.72;;;;;;;;;;5109202;28;20438;-80
2021/05/27 05:50:52;;;;;;;3.85;3.05;;;;;;;;;;5109983;28;20751;-80
2021/05/27 05:53:22;;;;;;;3.70;3.40;;;;;;;;;;5110019;28;20852;-81
2021/05/27 05:55:50;;;;;;;3.80;3.38;;;;;;;;;;5110005;28;20495;-79
2021/05/27 05:58:16;;;;;;;3.95;3.40;;;;;;;;;;5110244;28;20374;-80
2021/05/27 06:00:42;;;;;;;4.03;3.47;;;;;;;;;;5091639;28;20383;-82
2021/05/27 06:03:08;;;;;;;4.28;3.20;;;;;;;;;;5109881;28;20473;-81
2021/05/27 06:05:34;;;;;;;4.33;3.40;;;;;;;;;;5091137;28;20383;-82
2021/05/27 06:08:00;;;;;;;3.87;3.40;;;;;;;;;;5091358;28;20378;-82
2021/05/27 06:10:26;;;;;;;3.67;3.00;;;;;;;;;;5109983;28;20460;-82
2021/05/27 06:12:52;;;;;;;4.57;3.00;;;;;;;;;;5109774;28;20420;-78
2021/05/27 06:15:22;;;;;;;4.40;3.03;;;;;;;;;;5110037;28;20395;-81
2021/05/27 06:17:48;;;;;;;3.30;3.00;;;;;;;;;;5109820;28;20449;-80
2021/05/27 06:20:15;;;;;;;3.33;3.03;;;;;;;;;;5109138;28;20805;-81
2021/05/27 06:22:41;;;;;;;3.42;3.13;;;;;;;;;;5091329;28;20378;-81
2021/05/27 06:25:07;;;;;;;3.50;3.20;;;;;;;;;;5109188;28;20370;-80
2021/05/27 06:27:33;;;;;;;3.75;3.20;;;;;;;;;;5109403;28;20400;-80
2021/05/27 06:29:59;;;;;;;3.60;3.30;;;;;;;;;;5109194;28;20740;-80
2021/05/27 06:32:25;;;;;;;4.65;3.50;;;;;;;;;;5090841;28;20403;-82
2021/05/27 06:34:52;;;;;;;4.05;3.05;;;;;;;;;;5091118;28;20895;-80
2021/05/27 06:37:18;;;;;;;2.70;2.50;;;;;;;;;;5109102;28;20872;-79
2021/05/27 06:39:45;;;;;;;4.25;3.10;;;;;;;;;;5108809;28;20815;-81
2021/05/27 06:42:11;;;;;;;3.53;2.85;;;;;;;;;;5081052;28;20758;-80
2021/05/27 06:44:37;;;;;;;4.20;3.10;;;;;;;;;;5098783;28;20371;-81
2021/05/27 06:47:03;;;;;;;4.38;3.10;;;;;;;;;;5107035;28;20456;-81
2021/05/27 06:49:29;;;;;;;14.38;4.25;;;;;;;;;;5107973;28;20381;-81
2021/05/27 06:51:58;;;;;;;3.33;2.60;;;;;;;;;;5101543;28;20376;-84
2021/05/27 06:54:24;;;;;;;3.70;2.88;;;;;;;;;;5102963;28;20375;-79
2021/05/27 06:56:53;;;;;;;4.53;3.97;;;;;;;;;;5104585;28;20405;-81
2021/05/27 06:59:20;;;;;;;3.75;3.00;;;;;;;;;;5087242;28;20375;-79
2021/05/27 07:01:46;;;;;;;3.40;3.10;;;;;;;;;;5093721;28;20763;-79
2021/05/27 07:04:12;;;;;;;4.78;3.45;;;;;;;;;;5112413;28;20365;-81
2021/05/27 07:06:38;;;;;;;3.97;3.25;;;;;;;;;;5112200;28;20477;-81
2021/05/27 07:09:04;;;;;;;3.50;3.20;;;;;;;;;;5093318;28;20401;-81
2021/05/27 07:11:31;;;;;;;3.53;3.22;;;;;;;;;;5089084;27;20389;-83
2021/05/27 07:13:57;;;;;;;8.18;3.55;;;;;;;;;;5095806;28;21033;-84
2021/05/27 07:16:23;;;;;;;3.17;2.90;;;;;;;;;;5109504;27;20406;-81
2021/05/27 07:18:49;;;;;;;3.47;2.72;;;;;;;;;;5093354;28;20417;-82
2021/05/27 07:21:18;;;;;;;3.20;2.57;;;;;;;;;;5111562;28;20366;-81
2021/05/27 07:23:44;;;;;;;4.17;2.00;;;;;;;;;;5110791;28;20382;-81
2021/05/27 07:26:10;;;;;;;3.40;2.27;;;;;;;;;;5112106;28;20543;-80
2021/05/27 07:28:36;;;;;;;2.50;2.10;;;;;;;;;;5111178;28;20386;-81
2021/05/27 07:31:03;;;;;;;2.17;1.70;;;;;;;;;;5085824;28;20380;-81
2021/05/27 07:33:29;;;;;;;2.50;1.58;;;;;;;;;;5073509;28;20858;-80
2021/05/27 07:35:55;;;;;;;2.50;1.60;;;;;;;;;;5083654;28;20405;-81
2021/05/27 07:38:21;;;;;;;2.67;1.40;;;;;;;;;;5105955;28;20470;-80
2021/05/27 07:40:47;;;;;;;2.55;2.33;;;;;;;;;;5090902;28;20495;-81
2021/05/27 07:43:13;;;;;;;1.90;1.55;;;;;;;;;;5109711;28;20853;-80
2021/05/27 07:45:39;;;;;;;1.83;1.50;;;;;;;;;;5107259;28;20386;-81
2021/05/27 07:48:05;;;;;;;2.50;1.42;;;;;;;;;;5111368;28;20374;-81
2021/05/27 07:50:32;;;;;;;2.50;1.55;;;;;;;;;;5077327;28;20482;-82
2021/05/27 07:52:58;;;;;;;2.60;1.50;;;;;;;;;;5100886;28;20440;-80
2021/05/27 07:55:25;;;;;;;1.45;1.30;;;;;;;;;;5091232;28;20821;-80
2021/05/27 07:57:52;;;;;;;1.80;1.30;;;;;;;;;;5111551;28;20359;-80
2021/05/27 08:00:18;;;;;;;1.92;1.30;;;;;;;;;;5090601;28;20386;-80
2021/05/27 08:02:44;;;;;;;2.80;1.35;;;;;;;;;;5110928;28;20383;-80
2021/05/27 08:05:11;;;;;;;7.03;1.60;;;;;;;;;;5108654;28;20433;-80
2021/05/27 08:07:37;;;;;;;1.92;1.20;;;;;;;;;;5110972;28;20371;-81
2021/05/27 08:10:03;;;;;;;1.63;1.10;;;;;;;;;;5108535;28;20385;-80
2021/05/27 08:12:29;;;;;;;1.83;1.17;;;;;;;;;;5081849;28;20501;-81
2021/05/27 08:14:55;;;;;;;2.10;1.17;;;;;;;;;;5109174;28;20385;-80
2021/05/27 08:17:22;;;;;;;2.38;1.00;;;;;;;;;;5092585;28;20732;-82
2021/05/27 08:19:48;;;;;;;1.08;0.98;;;;;;;;;;5097301;28;20479;-80
2021/05/27 08:22:16;;;;;;;3.63;1.05;;;;;;;;;;5106375;28;20477;-81
2021/05/27 08:24:42;;;;;;;2.70;1.00;;;;;;;;;;5105955;28;20497;-81
2021/05/27 08:27:08;;;;;;;2.03;1.10;;;;;;;;;;5110446;28;20375;-80
2021/05/27 08:29:34;;;;;;;2.50;1.10;;;;;;;;;;5110637;28;20853;-80
2021/05/27 08:32:00;;;;;;;2.83;1.00;;;;;;;;;;5079466;28;20385;-84
2021/05/27 08:34:27;;;;;;;2.55;1.10;;;;;;;;;;5082668;28;20406;-86
2021/05/27 08:36:53;;;;;;;3.85;1.10;;;;;;;;;;5110308;28;20395;-83
2021/05/27 08:39:19;;;;;;;2.75;1.45;;;;;;;;;;5097494;28;20372;-82
2021/05/27 08:41:46;;;;;;;1.20;1.10;;;;;;;;;;5072099;28;20373;-84
2021/05/27 08:44:12;;;;;;;1.10;1.00;;;;;;;;;;5099422;28;20376;-81
2021/05/27 08:46:39;;;;;;;4.40;1.10;;;;;;;;;;5097279;28;20918;-82
2021/05/27 08:49:06;;;;;;;1.53;1.23;;;;;;;;;;5091903;28;20406;-80
2021/05/27 08:51:35;;;;;;;1.60;1.10;;;;;;;;;;5101597;28;20846;-82
2021/05/27 08:54:05;;;;;;;2.45;1.00;;;;;;;;;;5090227;28;20376;-81
2021/05/27 08:56:31;;;;;;;2.38;1.00;;;;;;;;;;5097161;28;20402;-81
2021/05/27 08:58:57;;;;;;;2.57;1.10;;;;;;;;;;5128376;27;20365;-82
2021/05/27 09:01:24;;;;;;;2.00;0.93;;;;;;;;;;5117303;27;20473;-80
2021/05/27 09:03:50;;;;;;;2.22;1.08;;;;;;;;;;5117421;27;20374;-81
2021/05/27 09:06:17;;;;;;;2.08;1.00;;;;;;;;;;5109971;28;20378;-81
2021/05/27 09:08:44;;;;;;;2.80;1.38;;;;;;;;;;5090439;28;20387;-80
2021/05/27 09:11:11;;;;;;;1.40;1.30;;;;;;;;;;5111704;27;20383;-81
2021/05/27 09:13:38;;;;;;;2.30;1.17;;;;;;;;;;5107591;28;20445;-83
2021/05/27 09:16:11;;;;;;;2.50;1.40;;;;;;;;;;5104650;28;20410;-81
2021/05/27 09:18:38;;;;;;;2.38;1.05;;;;;;;;;;5106764;28;20907;-81
2021/05/27 09:21:05;;;;;;;2.08;1.05;;;;;;;;;;5092975;28;20365;-83
2021/05/27 09:23:31;;;;;;;5.80;1.40;;;;;;;;;;5108998;28;20378;-85
2021/05/27 09:26:17;;;;;;;2.63;0.90;;;;;;;;;;5106936;28;20397;-82
2021/05/27 09:28:46;;;;;;;3.00;1.20;;;;;;;;;;5102616;27;21061;-80
2021/05/27 09:31:13;;;;;;;1.30;0.80;;;;;;;;;;5109433;28;20959;-82
2021/05/27 09:33:39;;;;;;;1.10;0.90;;;;;;;;;;5091245;28;20374;-80
2021/05/27 09:36:08;;;;;;;1.25;1.00;;;;;;;;;;5107841;28;20406;-82
2021/05/27 09:38:35;;;;;;;2.15;1.00;;;;;;;;;;5106108;28;20367;-82
2021/05/27 09:41:14;;;;;;;4.32;1.17;;;;;;;;;;5107890;28;20425;-81
2021/05/27 09:43:40;;;;;;;2.83;1.10;;;;;;;;;;5105469;28;20397;-81
2021/05/27 09:46:06;;;;;;;1.43;0.93;;;;;;;;;;5108884;28;20367;-81
2021/05/27 09:48:33;;;;;;;1.80;0.90;;;;;;;;;;5105692;28;20496;-81
2021/05/27 09:51:00;;;;;;;1.73;0.90;;;;;;;;;;5107233;28;20872;-82
2021/05/27 09:53:27;;;;;;;2.47;0.90;;;;;;;;;;5106869;28;20363;-79
2021/05/27 09:55:56;;;;;;;1.70;0.90;;;;;;;;;;5108044;28;20440;-82
2021/05/27 09:58:23;;;;;;;1.97;0.97;;;;;;;;;;5108123;28;20403;-82
2021/05/27 10:00:50;;;;;;;3.30;1.02;;;;;;;;;;5107945;28;20852;-81
2021/05/27 10:03:22;;;;;;;2.05;0.88;;;;;;;;;;5093258;28;20778;-81
2021/05/27 10:05:49;;;;;;;2.20;0.93;;;;;;;;;;5093028;28;20896;-81
2021/05/27 10:08:15;;;;;;;1.20;0.77;;;;;;;;;;5090515;28;20382;-82
2021/05/27 10:10:42;;;;;;;3.00;1.00;;;;;;;;;;5109152;28;20370;-82
2021/05/27 10:13:09;;;;;;;3.40;1.20;;;;;;;;;;5090210;28;20390;-82
2021/05/27 10:15:35;;;;;;;2.20;1.33;;;;;;;;;;5098118;28;20400;-80
2021/05/27 10:18:05;;;;;;;1.40;1.00;;;;;;;;;;5088900;28;20379;-81
2021/05/27 10:20:31;;;;;;;2.20;1.10;;;;;;;;;;5101231;28;20409;-82
2021/05/27 10:22:58;;;;;;;1.92;1.02;;;;;;;;;;5108352;28;20382;-83
2021/05/27 10:25:24;;;;;;;2.25;0.80;;;;;;;;;;5108535;28;20381;-83
2021/05/27 10:27:51;;;;;;;1.35;0.80;;;;;;;;;;5108855;28;20466;-84
2021/05/27 10:30:21;;;;;;;3.63;1.00;;;;;;;;;;5108780;28;20367;-83
2021/05/27 10:32:52;;;;;;;2.10;1.00;;;;;;;;;;5108586;28;20358;-82
2021/05/27 10:35:20;;;;;;;1.65;0.80;;;;;;;;;;5107070;28;20435;-82
2021/05/27 10:37:50;;;;;;;1.90;0.95;;;;;;;;;;5090783;28;20382;-81
2021/05/27 10:40:20;;;;;;;2.65;0.90;;;;;;;;;;5090820;28;20414;-81
2021/05/27 10:42:56;;;;;;;3.53;1.00;;;;;;;;;;5088828;28;20421;-81
2021/05/27 10:45:32;;;;;;;2.55;1.20;;;;;;;;;;5102438;28;21131;-80
2021/05/27 10:48:14;;;;;;;4.03;1.00;;;;;;;;;;5097059;28;20409;-81
2021/05/27 10:53:37;;;;;;;1.83;1.00;;;;;;;;;;5097029;28;20394;-83
2021/05/27 10:56:12;;;;;;;3.77;1.07;;;;;;;;;;5086951;28;20412;-83
2021/05/27 10:58:46;;;;;;;6.35;1.50;;;;;;;;;;5089884;28;20466;-78
2021/05/27 11:01:19;;;;;;;3.53;0.90;;;;;;;;;;5102177;28;20374;-83
2021/05/27 11:03:48;;;;;;;1.67;0.90;;;;;;;;;;5106066;28;20363;-81
2021/05/27 11:06:17;;;;;;;2.08;0.95;;;;;;;;;;5088268;28;20390;-79
2021/05/27 11:08:43;;;;;;;1.77;0.80;;;;;;;;;;5096189;28;20394;-83
2021/05/27 11:11:28;;;;;;;2.30;1.00;;;;;;;;;;5101631;28;20371;-83
2021/05/27 11:14:12;;;;;;;1.75;0.90;;;;;;;;;;5100896;28;20454;-82
2021/05/27 11:16:58;;;;;;;1.80;1.30;;;;;;;;;;5105020;28;20403;-83
2021/05/27 11:19:57;;;;;;;2.00;1.23;;;;;;;;;;5084801;28;20461;-84
2021/05/27 11:25:10;;;;;;;2.15;1.20;;;;;;;;;;5105311;28;20393;-83
2021/05/27 11:27:43;;;;;;;1.58;1.17;;;;;;;;;;5086155;28;20460;-80
2021/05/27 11:30:18;;;;;;;2.20;1.10;;;;;;;;;;5089837;28;20396;-80
2021/05/27 11:32:49;;;;;;;4.90;1.20;;;;;;;;;;5105998;28;20461;-85
2021/05/27 11:35:16;;;;;;;1.90;1.20;;;;;;;;;;5116112;28;20802;-83
2021/05/27 11:37:44;;;;;;;1.55;1.00;;;;;;;;;;5127666;28;20365;-81
2021/05/27 11:40:10;;;;;;;3.00;1.10;;;;;;;;;;5087493;28;20937;-85
2021/05/27 11:42:37;;;;;;;1.00;0.90;;;;;;;;;;5069768;28;20379;-84
2021/05/27 11:45:04;;;;;;;2.10;1.10;;;;;;;;;;5106305;28;20418;-83
2021/05/27 11:47:30;;;;;;;1.55;0.80;;;;;;;;;;5112309;28;20359;-83
2021/05/27 11:50:06;;;;;;;1.27;0.80;;;;;;;;;;5076680;28;20402;-89
2021/05/27 11:52:32;;;;;;;2.92;1.08;;;;;;;;;;5073999;28;20369;-79
2021/05/27 11:54:58;;;;;;;0.82;0.80;;;;;;;;;;5108764;28;20386;-85
2021/05/27 11:57:44;;;;;;;2.72;0.80;;;;;;;;;;5093645;28;20485;-85
2021/05/27 12:00:12;;;;;;;1.50;0.70;;;;;;;;;;5101100;28;20394;-88
2021/05/27 12:02:48;;;;;;;0.98;0.68;;;;;;;;;;5092997;28;20511;-85
2021/05/27 12:05:23;;;;;;;0.77;0.70;;;;;;;;;;5092318;28;20387;-84
2021/05/27 12:08:01;;;;;;;0.93;0.73;;;;;;;;;;5091454;28;20372;-86
2021/05/27 12:10:38;;;;;;;1.30;0.70;;;;;;;;;;5103119;28;20391;-85
2021/05/27 12:13:16;;;;;;;2.58;0.70;;;;;;;;;;5102912;28;20864;-84
2021/05/27 12:15:43;;;;;;;0.73;0.60;;;;;;;;;;5107895;27;20394;-82
2021/05/27 12:18:16;;;;;;;0.98;0.80;;;;;;;;;;5087759;28;20521;-82
2021/05/27 12:20:45;;;;;;;1.45;0.80;;;;;;;;;;5107738;28;20789;-79
2021/05/27 12:23:15;;;;;;;5.45;1.85;;;;;;;;;;5109085;28;20445;-83
2021/05/27 12:25:45;;;;;;;4.05;1.42;;;;;;;;;;5089865;28;20375;-81
2021/05/27 12:28:16;;;;;;;1.77;1.17;;;;;;;;;;5108450;28;20366;-80
2021/05/27 12:30:44;;;;;;;1.63;1.20;;;;;;;;;;5090022;28;20809;-80
2021/05/27 12:33:14;;;;;;;1.33;0.80;;;;;;;;;;5090670;28;20375;-81
2021/05/27 12:35:41;;;;;;;1.98;1.10;;;;;;;;;;5107918;28;20395;-80
2021/05/27 12:38:09;;;;;;;1.70;1.02;;;;;;;;;;5088401;28;20380;-80
2021/05/27 12:40:40;;;;;;;1.45;1.20;;;;;;;;;;5109405;28;20470;-80
2021/05/27 12:43:21;;;;;;;1.60;1.13;;;;;;;;;;5106370;28;20405;-80
2021/05/27 12:45:48;;;;;;;1.20;1.10;;;;;;;;;;5108054;28;20402;-81
2021/05/27 12:48:24;;;;;;;2.00;1.17;;;;;;;;;;5091541;28;20427;-80
2021/05/27 12:50:52;;;;;;;1.58;1.10;;;;;;;;;;5107402;28;20377;-80
2021/05/27 12:53:22;;;;;;;2.30;1.10;;;;;;;;;;5107240;28;20393;-80
2021/05/27 12:55:49;;;;;;;1.55;0.90;;;;;;;;;;5105080;28;20402;-81
2021/05/27 12:58:25;;;;;;;2.20;1.02;;;;;;;;;;5108603;28;20374;-80
2021/05/27 13:00:51;;;;;;;3.00;1.10;;;;;;;;;;5101505;28;20378;-80
2021/05/27 13:03:17;;;;;;;1.50;1.17;;;;;;;;;;5106212;28;20378;-80
2021/05/27 13:05:43;;;;;;;2.33;1.10;;;;;;;;;;5109283;28;20375;-80
2021/05/27 13:08:09;;;;;;;1.02;0.93;;;;;;;;;;5091036;28;20452;-81
2021/05/27 13:10:37;;;;;;;1.73;0.93;;;;;;;;;;5084032;27;20945;-80
2021/05/27 13:13:04;;;;;;;1.25;1.00;;;;;;;;;;5108926;28;20874;-80
2021/05/27 13:15:39;;;;;;;1.85;0.80;;;;;;;;;;5094537;28;20942;-80
2021/05/27 13:18:10;;;;;;;1.35;0.60;;;;;;;;;;5108482;28;20413;-80
2021/05/27 13:20:55;;;;;;;1.42;0.70;;;;;;;;;;5114781;27;20478;-83
2021/05/27 13:23:22;;;;;;;0.98;0.60;;;;;;;;;;5117860;27;20397;-83
2021/05/27 13:25:48;;;;;;;1.60;0.80;;;;;;;;;;5112214;27;20379;-82
2021/05/27 13:28:31;;;;;;;0.50;0.50;;;;;;;;;;5104016;27;20868;-85
2021/05/27 13:30:58;;;;;;;1.17;0.50;;;;;;;;;;5090444;28;20379;-83
2021/05/27 13:33:24;;;;;;;0.67;0.40;;;;;;;;;;5106153;28;20383;-82
2021/05/27 13:35:54;;;;;;;1.80;0.43;;;;;;;;;;5107326;28;20482;-83
2021/05/27 13:38:21;;;;;;;2.10;0.50;;;;;;;;;;5069451;28;20385;-83
2021/05/27 13:40:48;;;;;;;0.60;0.50;;;;;;;;;;5095138;28;20382;-84
2021/05/27 13:43:15;;;;;;;2.00;0.40;;;;;;;;;;5090517;28;20382;-84
2021/05/27 13:45:41;;;;;;;1.05;0.45;;;;;;;;;;5087332;28;20939;-83
2021/05/27 13:48:07;;;;;;;0.68;0.30;;;;;;;;;;5088543;28;20470;-85
2021/05/27 13:50:34;;;;;;;0.50;0.50;;;;;;;;;;5118080;27;20391;-85
2021/05/27 13:53:04;;;;;;;1.83;0.60;;;;;;;;;;5102887;28;20367;-84
2021/05/27 13:55:37;;;;;;;0.40;0.40;;;;;;;;;;5109413;27;20390;-84
2021/05/27 13:58:04;;;;;;;1.55;0.70;;;;;;;;;;5115535;27;20382;-83
2021/05/27 14:00:30;;;;;;;1.90;0.60;;;;;;;;;;5091175;28;20378;-82
2021/05/27 14:02:56;;;;;;;0.82;0.57;;;;;;;;;;5104998;27;20377;-86
2021/05/27 14:05:23;;;;;;;0.75;0.50;;;;;;;;;;5129687;27;20460;-84
2021/05/27 14:07:53;;;;;;;0.57;0.57;;;;;;;;;;5128924;27;20439;-85
2021/05/27 14:10:20;;;;;;;0.50;0.40;;;;;;;;;;5110304;27;20400;-84
2021/05/27 14:12:47;;;;;;;0.60;0.50;;;;;;;;;;5112726;27;20376;-82
2021/05/27 14:15:13;;;;;;;0.60;0.60;;;;;;;;;;5129604;27;20439;-81
2021/05/27 14:17:40;;;;;;;2.00;0.77;;;;;;;;;;5129370;27;20385;-82
2021/05/27 14:20:08;;;;;;;0.95;0.60;;;;;;;;;;5125130;27;20436;-83
2021/05/27 14:22:34;;;;;;;1.13;0.80;;;;;;;;;;5107644;28;20371;-82
2021/05/27 14:25:00;;;;;;;1.20;0.70;;;;;;;;;;5089601;28;20427;-83
2021/05/27 14:27:27;;;;;;;0.63;0.60;;;;;;;;;;5106939;28;20796;-83
2021/05/27 14:29:53;;;;;;;1.30;0.70;;;;;;;;;;5107503;28;20410;-83
2021/05/27 14:32:19;;;;;;;1.23;0.80;;;;;;;;;;5108245;28;20760;-83
2021/05/27 14:34:45;;;;;;;0.82;0.70;;;;;;;;;;5108791;28;20363;-82
2021/05/27 14:37:11;;;;;;;1.52;0.90;;;;;;;;;;5108923;28;20402;-83
2021/05/27 14:39:38;;;;;;;1.17;0.70;;;;;;;;;;5109047;28;20386;-82
2021/05/27 14:42:04;;;;;;;2.90;0.70;;;;;;;;;;5090542;28;20737;-84
2021/05/27 14:44:31;;;;;;;3.50;0.93;;;;;;;;;;5109016;28;20370;-81
2021/05/27 14:46:57;;;;;;;3.65;1.15;;;;;;;;;;5108894;28;20763;-84
2021/05/27 14:49:23;;;;;;;3.78;1.17;;;;;;;;;;5108895;28;20366;-82
2021/05/27 14:51:49;;;;;;;1.85;1.17;;;;;;;;;;5108953;28;20359;-81
2021/05/27 14:54:16;;;;;;;1.80;1.00;;;;;;;;;;5108829;28;20868;-82